createdAt,value
2023-05-05T00:00:14.073Z,14.33
2023-05-05T00:02:43.391Z,14.10
2023-05-05T00:05:10.448Z,14.19
2023-05-05T00:07:37.333Z,14.20
2023-05-05T00:10:05.814Z,13.93
2023-05-05T00:12:33.616Z,14.01
2023-05-05T00:15:02.638Z,13.98
2023-05-05T00:17:30.850Z,13.78
2023-05-05T00:19:57.434Z,13.88
2023-05-05T00:22:24.075Z,13.85
2023-05-05T00:24:55.568Z,13.82
2023-05-05T00:27:23.320Z,13.92
2023-05-05T00:29:50.836Z,13.81
2023-05-05T00:32:19.546Z,13.79
2023-05-05T00:34:46.593Z,13.68
2023-05-05T00:37:16.837Z,13.80
2023-05-05T00:39:44.205Z,13.90
2023-05-05T00:42:11.575Z,13.87
2023-05-05T00:44:40.663Z,13.83
2023-05-05T00:47:16.786Z,13.69
2023-05-05T00:49:43.666Z,13.81
2023-05-05T00:52:11.703Z,13.81
2023-05-05T00:54:44.341Z,13.85
2023-05-05T00:57:11.562Z,13.91
2023-05-05T00:59:39.149Z,13.88
2023-05-05T01:02:06.321Z,13.92
2023-05-05T01:04:34.254Z,13.99
2023-05-05T01:07:52.621Z,14.05
2023-05-05T01:10:43.029Z,13.86
2023-05-05T01:13:32.849Z,14.14
2023-05-05T01:16:12.064Z,14.17
2023-05-05T01:18:52.806Z,14.14
2023-05-05T01:21:47.693Z,14.12
2023-05-05T01:24:33.111Z,14.12
2023-05-05T01:27:27.304Z,14.11
2023-05-05T01:30:32.472Z,14.14
2023-05-05T01:33:05.568Z,14.11
2023-05-05T01:35:45.879Z,14.02
2023-05-05T01:38:19.197Z,14.09
2023-05-05T01:40:52.132Z,13.92
2023-05-05T01:43:21.720Z,13.89
2023-05-05T01:45:50.664Z,13.98
2023-05-05T01:48:19.507Z,13.97
2023-05-05T01:50:48.171Z,13.77
2023-05-05T01:53:18.233Z,13.90
2023-05-05T01:55:47.179Z,13.84
2023-05-05T01:58:16.529Z,13.91
2023-05-05T02:00:44.250Z,13.65
2023-05-05T02:03:16.274Z,13.95
2023-05-05T02:05:44.745Z,13.96
2023-05-05T02:08:12.226Z,13.96
2023-05-05T02:10:45.730Z,14.03
2023-05-05T02:13:15.603Z,13.98
2023-05-05T02:15:46.405Z,13.88
2023-05-05T02:20:55.347Z,13.78
2023-05-05T02:23:22.212Z,13.70
2023-05-05T02:25:57.994Z,13.61
2023-05-05T02:28:41.906Z,13.40
2023-05-05T02:31:11.125Z,13.22
2023-05-05T02:33:39.342Z,13.13
2023-05-05T02:36:26.280Z,13.03
2023-05-05T02:38:58.332Z,12.88
2023-05-05T02:41:30.804Z,12.68
2023-05-05T02:44:00.940Z,12.69
2023-05-05T02:46:33.025Z,12.48
2023-05-05T02:49:04.447Z,12.35
2023-05-05T02:51:33.721Z,12.56
2023-05-05T02:54:01.805Z,12.40
2023-05-05T02:56:42.346Z,12.52
2023-05-05T02:59:26.682Z,12.55
2023-05-05T03:02:20.066Z,12.60
2023-05-05T03:05:21.757Z,12.50
2023-05-05T03:08:09.809Z,12.52
2023-05-05T03:10:44.244Z,12.69
2023-05-05T03:13:14.421Z,12.66
2023-05-05T03:15:46.802Z,12.48
2023-05-05T03:18:18.101Z,12.59
2023-05-05T03:20:46.485Z,12.76
2023-05-05T03:23:20.409Z,12.83
2023-05-05T03:25:48.848Z,12.86
2023-05-05T03:28:18.423Z,12.78
2023-05-05T03:30:48.980Z,12.94
2023-05-05T03:33:19.828Z,12.85
2023-05-05T03:35:50.279Z,13.09
2023-05-05T03:38:17.064Z,13.14
2023-05-05T03:40:44.846Z,13.24
2023-05-05T03:43:11.829Z,13.16
2023-05-05T03:45:46.115Z,13.10
2023-05-05T03:48:13.650Z,13.15
2023-05-05T03:50:40.669Z,13.07
2023-05-05T03:53:07.095Z,12.86
2023-05-05T03:55:37.969Z,12.93
2023-05-05T03:58:04.455Z,12.91
2023-05-05T04:00:31.413Z,12.93
2023-05-05T04:02:58.085Z,12.90
2023-05-05T04:05:25.733Z,12.98
2023-05-05T04:07:52.874Z,12.97
2023-05-05T04:10:20.644Z,12.80
2023-05-05T04:12:47.632Z,12.97
2023-05-05T04:15:14.378Z,12.99
2023-05-05T04:17:41.126Z,12.96
2023-05-05T04:20:12.514Z,12.71
2023-05-05T04:22:40.890Z,12.81
2023-05-05T04:25:07.795Z,12.78
2023-05-05T04:27:40.286Z,12.78
2023-05-05T04:30:10.257Z,12.80
2023-05-05T04:32:41.992Z,12.64
2023-05-05T04:35:11.971Z,12.73
2023-05-05T04:37:40.226Z,12.67
2023-05-05T04:40:09.845Z,12.67
2023-05-05T04:42:39.560Z,12.46
2023-05-05T04:45:09.923Z,12.75
2023-05-05T04:47:37.131Z,12.84
2023-05-05T04:50:03.997Z,12.88
2023-05-05T04:52:38.286Z,12.90
2023-05-05T04:55:12.594Z,12.97
2023-05-05T04:57:41.981Z,12.95
2023-05-05T05:00:12.278Z,12.97
2023-05-05T05:02:39.486Z,13.09
2023-05-05T05:05:08.066Z,13.13
2023-05-05T05:07:42.495Z,12.89
2023-05-05T05:10:20.593Z,13.20
2023-05-05T05:12:57.785Z,13.22
2023-05-05T05:15:30.338Z,13.05
2023-05-05T05:17:57.657Z,13.28
2023-05-05T05:20:25.816Z,13.32
2023-05-05T05:22:52.702Z,13.33
2023-05-05T05:25:21.174Z,13.63
2023-05-05T05:30:39.010Z,13.83
2023-05-05T05:33:07.735Z,13.81
2023-05-05T05:35:35.167Z,13.92
2023-05-05T05:38:05.076Z,14.19
2023-05-05T05:40:49.880Z,14.15
2023-05-05T05:43:18.597Z,14.33
2023-05-05T05:45:48.307Z,14.28
2023-05-05T05:51:17.285Z,14.38
2023-05-05T05:53:49.913Z,14.65
2023-05-05T05:59:01.916Z,14.78
2023-05-05T06:01:33.846Z,14.80
2023-05-05T06:04:02.479Z,14.72
2023-05-05T06:06:29.441Z,14.79
2023-05-05T06:09:05.158Z,14.87
2023-05-05T06:11:33.272Z,14.93
2023-05-05T06:14:00.547Z,15.02
2023-05-05T06:16:27.556Z,15.38
2023-05-05T06:18:57.579Z,15.53
2023-05-05T06:21:37.961Z,15.39
2023-05-05T06:24:07.193Z,15.83
2023-05-05T06:26:34.184Z,15.87
2023-05-05T06:29:01.579Z,15.84
2023-05-05T06:31:28.745Z,16.16
2023-05-05T06:33:58.453Z,16.44
2023-05-05T06:36:29.824Z,16.56
2023-05-05T06:38:59.219Z,16.67
2023-05-05T06:41:28.084Z,16.83
2023-05-05T06:43:56.301Z,16.90
2023-05-05T06:46:23.542Z,17.11
2023-05-05T06:48:52.079Z,17.45
2023-05-05T06:51:26.598Z,17.71
2023-05-05T06:53:55.499Z,17.84
2023-05-05T06:56:28.776Z,17.79
2023-05-05T06:59:16.646Z,17.92
2023-05-05T07:04:42.612Z,18.55
2023-05-05T07:07:10.317Z,18.56
2023-05-05T07:09:48.308Z,18.41
2023-05-05T07:12:18.832Z,18.48
2023-05-05T07:14:52.806Z,17.88
2023-05-05T07:17:24.146Z,18.22
2023-05-05T07:25:33.599Z,19.28
2023-05-05T07:28:30.358Z,19.20
2023-05-05T07:31:02.518Z,19.42
2023-05-05T07:33:31.191Z,19.62
2023-05-05T07:38:58.951Z,19.82
2023-05-05T07:44:18.522Z,20.57
2023-05-05T07:46:48.081Z,20.63
2023-05-05T07:49:20.019Z,20.64
2023-05-05T07:51:56.659Z,20.32
2023-05-05T07:57:26.166Z,21.08
2023-05-05T07:59:53.486Z,21.20
2023-05-05T08:02:26.668Z,21.15
2023-05-05T08:04:58.076Z,21.71
2023-05-05T08:07:29.377Z,22.03
2023-05-05T08:10:07.841Z,21.70
2023-05-05T08:12:40.634Z,21.42
2023-05-05T08:15:14.221Z,20.80
2023-05-05T08:17:51.834Z,20.49
2023-05-05T08:23:13.779Z,20.43
2023-05-05T08:25:47.782Z,20.29
2023-05-05T08:28:17.003Z,20.07
2023-05-05T08:31:10.077Z,19.93
2023-05-05T08:39:17.370Z,20.87
2023-05-05T08:41:51.122Z,21.29
2023-05-05T08:44:53.775Z,21.70
2023-05-05T08:47:39.048Z,21.72
2023-05-05T08:50:18.818Z,21.58
2023-05-05T08:52:56.357Z,21.64
2023-05-05T08:55:33.141Z,21.79
2023-05-05T08:58:08.600Z,21.86
2023-05-05T09:00:37.745Z,21.96
2023-05-05T09:03:15.028Z,22.01
2023-05-05T09:05:47.713Z,21.94
2023-05-05T09:08:19.895Z,22.13
2023-05-05T09:10:58.755Z,22.26
2023-05-05T09:13:27.191Z,22.42
2023-05-05T09:16:06.534Z,22.67
2023-05-05T09:18:42.598Z,22.83
2023-05-05T09:21:36.345Z,22.92
2023-05-05T09:24:24.145Z,23.03
2023-05-05T09:26:55.697Z,23.17
2023-05-05T09:29:27.734Z,22.91
2023-05-05T09:32:09.958Z,22.84
2023-05-05T09:34:40.643Z,22.88
2023-05-05T09:40:36.404Z,22.71
2023-05-05T09:43:11.616Z,22.73
2023-05-05T09:45:43.757Z,22.90
2023-05-05T09:48:28.623Z,23.16
2023-05-05T09:50:57.841Z,23.20
2023-05-05T09:56:11.190Z,23.31
2023-05-05T09:58:38.512Z,23.45
2023-05-05T10:01:05.437Z,23.55
2023-05-05T10:03:35.293Z,23.71
2023-05-05T10:06:05.425Z,23.71
2023-05-05T10:08:34.762Z,23.88
2023-05-05T10:11:07.489Z,23.86
2023-05-05T10:13:51.952Z,23.96
2023-05-05T10:16:30.813Z,24.23
2023-05-05T10:19:05.260Z,24.25
2023-05-05T10:24:46.253Z,24.53
2023-05-05T10:27:31.089Z,24.82
2023-05-05T10:30:15.557Z,25.16
2023-05-05T10:36:00.377Z,24.82
2023-05-05T10:38:45.218Z,25.11
2023-05-05T10:41:16.466Z,25.13
2023-05-05T10:43:53.509Z,25.02
2023-05-05T10:46:29.156Z,24.89
2023-05-05T10:49:39.978Z,25.11
2023-05-05T10:52:23.501Z,24.76
2023-05-05T10:55:16.882Z,25.22
2023-05-05T11:03:44.930Z,25.60
2023-05-05T11:09:00.258Z,25.13
2023-05-05T11:11:48.534Z,25.30
2023-05-05T11:14:26.699Z,24.93
2023-05-05T11:17:09.911Z,24.89
2023-05-05T11:19:57.060Z,25.27
2023-05-05T11:22:24.452Z,25.05
2023-05-05T11:24:53.541Z,24.77
2023-05-05T11:27:23.589Z,24.60
2023-05-05T11:36:37.567Z,25.36
2023-05-05T11:39:24.664Z,25.30
2023-05-05T11:45:28.392Z,24.87
2023-05-05T11:48:29.561Z,25.03
2023-05-05T12:00:13.074Z,24.61
2023-05-05T12:02:47.129Z,24.83
2023-05-05T12:05:28.443Z,24.97
2023-05-05T12:08:02.339Z,24.94
2023-05-05T12:10:29.591Z,24.80
2023-05-05T12:12:58.692Z,24.87
2023-05-05T12:15:34.535Z,24.69
2023-05-05T12:18:22.461Z,24.38
2023-05-05T12:20:52.398Z,24.61
2023-05-05T12:23:23.962Z,24.65
2023-05-05T12:25:51.727Z,24.59
2023-05-05T12:28:18.520Z,24.83
2023-05-05T12:33:44.306Z,24.93
2023-05-05T12:36:16.992Z,24.99
2023-05-05T12:38:46.358Z,25.04
2023-05-05T12:41:24.826Z,25.13
2023-05-05T12:43:56.766Z,25.19
2023-05-05T12:46:26.758Z,25.16
2023-05-05T12:49:08.238Z,25.30
2023-05-05T12:51:43.804Z,25.53
2023-05-05T12:54:24.909Z,25.14
2023-05-05T12:56:59.568Z,25.14
2023-05-05T12:59:35.350Z,25.06
2023-05-05T13:02:15.397Z,25.14
2023-05-05T13:04:56.537Z,25.29
2023-05-05T13:14:47.213Z,25.64
2023-05-05T13:17:29.683Z,25.91
2023-05-05T13:22:53.122Z,25.82
2023-05-05T13:25:23.160Z,25.82
2023-05-05T13:33:19.982Z,25.74
2023-05-05T13:38:45.806Z,25.09
2023-05-05T13:41:16.859Z,25.06
2023-05-05T13:43:48.313Z,24.97
2023-05-05T13:46:19.965Z,24.82
2023-05-05T13:48:56.040Z,24.46
2023-05-05T13:51:49.973Z,24.97
2023-05-05T14:10:22.679Z,25.21
2023-05-05T14:12:55.030Z,25.35
2023-05-05T14:21:09.090Z,24.98
2023-05-05T14:26:30.694Z,25.48
2023-05-05T14:29:04.552Z,25.64
2023-05-05T14:34:22.507Z,25.15
2023-05-05T14:36:50.075Z,24.87
2023-05-05T14:39:20.746Z,24.58
2023-05-05T14:41:51.866Z,24.41
2023-05-05T14:44:22.502Z,24.32
2023-05-05T14:49:44.296Z,24.73
2023-05-05T14:52:11.088Z,24.45
2023-05-05T14:54:40.373Z,24.37
2023-05-05T14:57:15.645Z,24.34
2023-05-05T14:59:49.731Z,24.48
2023-05-05T15:02:16.928Z,24.48
2023-05-05T15:04:44.170Z,24.29
2023-05-05T15:07:13.610Z,24.00
2023-05-05T15:09:44.816Z,23.75
2023-05-05T15:12:29.674Z,23.49
2023-05-05T15:14:57.071Z,23.33
2023-05-05T15:17:25.327Z,23.43
2023-05-05T15:19:52.120Z,23.41
2023-05-05T15:22:19.663Z,23.37
2023-05-05T15:24:46.890Z,23.24
2023-05-05T15:27:19.586Z,22.93
2023-05-05T15:29:50.793Z,22.30
2023-05-05T15:32:17.937Z,20.98
2023-05-05T15:34:50.183Z,20.47
2023-05-05T15:37:19.920Z,20.30
2023-05-05T15:39:47.139Z,20.07
2023-05-05T15:42:17.918Z,19.76
2023-05-05T15:44:45.242Z,19.52
2023-05-05T15:47:18.426Z,19.28
2023-05-05T15:49:52.218Z,19.14
2023-05-05T15:52:22.443Z,18.90
2023-05-05T15:54:49.459Z,18.89
2023-05-05T16:02:43.043Z,19.16
2023-05-05T16:05:10.887Z,19.10
2023-05-05T16:08:10.823Z,19.29
2023-05-05T16:10:38.196Z,19.37
2023-05-05T16:13:08.524Z,19.15
2023-05-05T16:15:41.700Z,19.25
2023-05-05T16:18:20.542Z,19.18
2023-05-05T16:20:47.560Z,19.16
2023-05-05T16:23:18.354Z,19.16
2023-05-05T16:25:48.932Z,19.22
2023-05-05T16:28:19.227Z,19.14
2023-05-05T16:30:46.682Z,18.86
2023-05-05T16:33:14.358Z,19.19
2023-05-05T16:36:10.784Z,18.87
2023-05-05T16:39:00.195Z,19.12
2023-05-05T16:41:47.182Z,19.13
2023-05-05T16:44:14.872Z,19.07
2023-05-05T16:46:49.759Z,19.13
2023-05-05T16:49:34.326Z,19.10
2023-05-05T16:52:02.289Z,19.07
2023-05-05T16:54:36.936Z,18.77
2023-05-05T16:57:06.079Z,18.85
2023-05-05T16:59:35.262Z,18.60
2023-05-05T17:02:06.047Z,18.83
2023-05-05T17:04:36.316Z,18.97
2023-05-05T17:07:06.882Z,18.96
2023-05-05T17:13:02.132Z,18.78
2023-05-05T17:15:33.470Z,18.81
2023-05-05T17:20:50.813Z,18.75
2023-05-05T17:31:58.212Z,18.81
2023-05-05T17:34:46.135Z,18.82
2023-05-05T17:40:06.060Z,18.47
2023-05-05T17:45:23.185Z,18.39
2023-05-05T17:48:07.338Z,18.14
2023-05-05T17:50:43.505Z,18.52
2023-05-05T17:53:14.414Z,18.35
2023-05-05T17:55:49.657Z,18.52
2023-05-05T17:58:32.460Z,18.16
2023-05-05T18:01:26.316Z,18.41
2023-05-05T18:03:57.083Z,18.54
2023-05-05T18:06:30.423Z,18.84
2023-05-05T18:09:00.260Z,18.96
2023-05-05T18:11:55.285Z,18.99
2023-05-05T18:14:26.060Z,18.67
2023-05-05T18:17:06.944Z,18.80
2023-05-05T18:19:35.015Z,18.67
2023-05-05T18:22:16.387Z,18.67
2023-05-05T18:24:46.773Z,18.89
2023-05-05T18:27:14.461Z,18.93
2023-05-05T18:29:43.890Z,18.62
2023-05-05T18:38:23.209Z,18.98
2023-05-05T18:40:53.361Z,18.97
2023-05-05T18:43:21.119Z,18.81
2023-05-05T18:58:37.658Z,18.73
2023-05-05T19:01:15.265Z,18.72
2023-05-05T19:10:27.356Z,18.79
2023-05-05T19:12:59.930Z,18.55
2023-05-05T19:15:34.194Z,18.51
2023-05-05T19:18:04.665Z,18.51
2023-05-05T19:20:45.762Z,18.67
2023-05-05T19:23:23.567Z,18.42
2023-05-05T19:25:56.582Z,18.70
2023-05-05T19:31:11.828Z,18.49
2023-05-05T19:33:47.307Z,18.66
2023-05-05T19:36:23.153Z,18.34
2023-05-05T19:38:55.489Z,18.32
2023-05-05T19:41:31.506Z,18.08
2023-05-05T19:44:02.004Z,18.01
2023-05-05T19:46:28.949Z,18.25
2023-05-05T19:48:58.443Z,18.08
2023-05-05T19:51:30.314Z,17.81
2023-05-05T19:53:57.440Z,18.11
2023-05-05T19:59:18.640Z,18.01
2023-05-05T20:01:49.992Z,18.16
2023-05-05T20:04:24.047Z,17.93
2023-05-05T20:07:00.260Z,17.99
2023-05-05T20:09:35.523Z,17.51
2023-05-05T20:12:06.172Z,17.82
2023-05-05T20:14:33.211Z,17.64
2023-05-05T20:17:04.239Z,17.56
2023-05-05T20:19:32.305Z,17.64
2023-05-05T20:22:07.867Z,17.23
2023-05-05T20:27:45.929Z,17.56
2023-05-05T20:30:15.371Z,17.07
2023-05-05T20:32:44.858Z,17.37
2023-05-05T20:35:13.092Z,17.04
2023-05-05T20:37:43.758Z,17.23
2023-05-05T20:42:54.693Z,17.01
2023-05-05T20:45:29.142Z,17.03
2023-05-05T20:48:05.346Z,17.02
2023-05-05T20:50:33.873Z,17.02
2023-05-05T20:53:03.336Z,17.04
2023-05-05T20:55:32.406Z,16.99
2023-05-05T20:58:11.249Z,17.05
2023-05-05T21:00:41.531Z,16.75
2023-05-05T21:03:12.734Z,17.00
2023-05-05T21:05:43.605Z,16.98
2023-05-05T21:08:21.750Z,16.94
2023-05-05T21:10:51.192Z,16.86
2023-05-05T21:13:29.482Z,16.69
2023-05-05T21:15:56.964Z,16.74
2023-05-05T21:18:34.598Z,16.79
2023-05-05T21:21:08.645Z,16.76
2023-05-05T21:23:38.403Z,16.79
2023-05-05T21:26:09.071Z,16.86
2023-05-05T21:28:39.105Z,16.84
2023-05-05T21:31:21.383Z,16.82
2023-05-05T21:36:34.489Z,16.77
2023-05-05T21:41:49.829Z,16.89
2023-05-05T21:44:20.681Z,16.82
2023-05-05T21:46:51.020Z,16.81
2023-05-05T21:52:02.470Z,16.77
2023-05-05T21:54:30.509Z,16.77
2023-05-05T21:56:58.482Z,16.67
2023-05-05T21:59:25.859Z,16.75
2023-05-05T22:01:58.644Z,16.56
2023-05-05T22:04:28.974Z,16.65
2023-05-05T22:06:56.607Z,16.80
2023-05-05T22:09:23.783Z,16.74
2023-05-05T22:14:44.403Z,16.45
2023-05-05T22:20:08.545Z,16.20
2023-05-05T22:22:36.134Z,16.18
2023-05-05T22:25:18.720Z,16.22
2023-05-05T22:27:50.517Z,16.21
2023-05-05T22:30:18.957Z,16.42
2023-05-05T22:32:49.981Z,16.42
2023-05-05T22:35:19.166Z,15.84
2023-05-05T22:37:49.016Z,16.26
2023-05-05T22:40:19.226Z,16.16
2023-05-05T22:42:54.894Z,16.07
2023-05-05T22:45:23.391Z,16.01
2023-05-05T22:50:34.407Z,15.86
2023-05-05T22:53:11.602Z,15.79
2023-05-05T22:55:43.186Z,15.60
2023-05-05T22:58:18.194Z,15.45
2023-05-05T23:00:47.357Z,15.64
2023-05-05T23:03:18.852Z,15.62
2023-05-05T23:05:48.037Z,15.59
2023-05-05T23:08:26.941Z,15.61
2023-05-05T23:10:54.567Z,15.60
2023-05-05T23:16:07.467Z,15.16
2023-05-05T23:18:36.429Z,15.72
2023-05-05T23:21:11.291Z,15.18
2023-05-05T23:23:43.388Z,15.47
2023-05-05T23:26:14.323Z,15.44
2023-05-05T23:28:46.483Z,15.48
2023-05-05T23:31:14.257Z,15.73
2023-05-05T23:36:37.220Z,15.22
2023-05-05T23:39:07.859Z,15.80
2023-05-05T23:41:35.740Z,15.75
2023-05-05T23:44:07.096Z,15.57
2023-05-05T23:46:34.467Z,15.10
2023-05-05T23:49:07.651Z,15.64
2023-05-05T23:51:37.186Z,15.37
2023-05-05T23:54:06.227Z,15.08
2023-05-05T23:56:35.943Z,15.01
2023-05-05T23:59:03.699Z,15.30
